DRZA/AJY METAR and TAF weather

Enter ICAO airport designator
Station Type Date Time Source
DRZA METAR 2019/06/18 13:00 UTC NOAA

DRZA 181300Z 26012KT 9999 FEW033 43/15 Q1012


Station Type Date Time Source
DRZA Decoded METAR 2019/06/18 13:00 UTC NOAA

Agadez, Niger (DRZA) 16-58N 007-59E 502M
Jun 18, 2019 - 09:00 AM EDT / 2019.06.18 1300 UTC
Wind: from the W (260 degrees) at 14 MPH (12 KT):0
Visibility: greater than 7 mile(s):0
Sky conditions: mostly clear
Temperature: 109 F (43 C)
Heat index: 109.6 F (43.1 C):1
Dew Point: 59 F (15 C)
Relative Humidity: 19%
Pressure (altimeter): 29.88 in. Hg (1012 hPa)
ob: DRZA 181300Z 26012KT 9999 FEW033 43/15 Q1012
cycle: 13

Station Type Date Time Source
DRZA TAF 2019/06/18 12:21 UTC NOAA

TAF DRZA 181100Z 1812/1912 26008KT 8000 NSC
TEMPO 1813/1816 VRB30KT 1200 BLDU -TSRA SCT030 FEW040CB

Example: see airport list